Etusivu
METAR-TAF:

METAR-TAF

Lentoasemat :

Utin lentoasema

Utti, Suomi

Leveyspiiri: 60-54N, Pituuspiiri: 026-56E, korkeus merenpinnasta: 100 m

Tämänhetkinen sää

Tämä raportti tehtiin 16 minuuttia sitten, kello 11.50 UTC
Tuuli 11 kn lännestä, vaihdellen lounaan ja lännen/luoteen välillä
Lämpötila 9°C
Kosteus 66%
Ilmanpaine 1004 hPa
Näkyvyys 10 km tai enemmän
Hajanaisia pilviä 2700 ft:n korkeudessa

METAR: EFUT 221150Z 27011KT 230V300 9999 SCT027 09/03 Q1004

Aika: 15:06 (12:06 UTC)

Sääennuste

Tämä raportti tehtiin 3 tuntia ja 37 minuuttia sitten, kello 08.29 UTC
Ennuste voimassa 22. päivästä klo 09 UTC - 22. päivään klo 13 UTC
Tuuli 11 kn lännestä/luoteesta
Näkyvyys 10 km tai enemmän
Hajonneita pilviä 2000 ft:n korkeudessa
Todennäköisyys 30%
22. päivästä klo 11 UTC - 22. päivään klo 13 UTC
Muutamia pilviä 2000 ft:n korkeudessa, Kasvava cumulus-pilvi.

TAF: EFUT 220829Z 2209/2213 29011KT 9999 BKN020 PROB30 2211/2213 FEW020TCU

Säähavainnot ja -ennusteet yli 4000 lentoasemalta (METAR- ja TAF-raportit).

Käytössä olevat sääasemat on merkitty karttaan keltaisilla ja punaisilla pisteillä.

Aseta hiiri pisteen päälle nähdäksesi sääaseman nimen.

Klikkaa sitten nähdäksesi säähavainnot ja -ennusteet.

Kartan vaihtaminen: klikkaa mustalla rastilla varustettuja vihreitä pisteitä, niin voit zoomata sisään; viivalla varustettua vihreää pistettä, niin voit zoomata ulos tai vihreitä nuolia, niin pääset viereisille kartoille.


METAR-TAF: